sensor_id;sensor_type;location;lat;lon;timestamp;pressure;altitude;pressure_sealevel;temperature;humidity
60433;BME280;46286;48.098;11.590;2023-04-06T00:00:13;95704.50;;;-3.03;100.00
60433;BME280;46286;48.098;11.590;2023-04-06T00:02:59;95703.63;;;-3.10;100.00
60433;BME280;46286;48.098;11.590;2023-04-06T00:05:25;95700.50;;;-3.05;100.00
60433;BME280;46286;48.098;11.590;2023-04-06T00:07:52;95699.72;;;-3.06;100.00
60433;BME280;46286;48.098;11.590;2023-04-06T00:10:19;95701.66;;;-3.08;100.00
60433;BME280;46286;48.098;11.590;2023-04-06T00:12:45;95700.03;;;-3.09;100.00
60433;BME280;46286;48.098;11.590;2023-04-06T00:15:10;95689.75;;;-3.09;100.00
60433;BME280;46286;48.098;11.590;2023-04-06T00:17:36;95695.97;;;-3.18;100.00
60433;BME280;46286;48.098;11.590;2023-04-06T00:20:01;95697.56;;;-3.17;100.00
60433;BME280;46286;48.098;11.590;2023-04-06T00:22:27;95687.97;;;-3.23;100.00
60433;BME280;46286;48.098;11.590;2023-04-06T00:24:53;95686.41;;;-3.24;100.00
60433;BME280;46286;48.098;11.590;2023-04-06T00:27:18;95688.97;;;-3.24;100.00
60433;BME280;46286;48.098;11.590;2023-04-06T00:29:44;95690.31;;;-3.28;100.00
60433;BME280;46286;48.098;11.590;2023-04-06T00:32:10;95692.88;;;-3.28;100.00
60433;BME280;46286;48.098;11.590;2023-04-06T00:34:35;95692.59;;;-3.34;100.00
60433;BME280;46286;48.098;11.590;2023-04-06T00:37:01;95690.47;;;-3.45;100.00
60433;BME280;46286;48.098;11.590;2023-04-06T00:39:26;95689.91;;;-3.55;100.00
60433;BME280;46286;48.098;11.590;2023-04-06T00:41:53;95697.56;;;-3.47;100.00
60433;BME280;46286;48.098;11.590;2023-04-06T00:44:19;95692.06;;;-3.44;100.00
60433;BME280;46286;48.098;11.590;2023-04-06T00:46:45;95691.28;;;-3.15;100.00
60433;BME280;46286;48.098;11.590;2023-04-06T00:49:11;95691.72;;;-3.11;100.00
60433;BME280;46286;48.098;11.590;2023-04-06T00:51:36;95690.97;;;-3.05;100.00
60433;BME280;46286;48.098;11.590;2023-04-06T00:54:02;95684.69;;;-3.02;100.00
60433;BME280;46286;48.098;11.590;2023-04-06T00:56:28;95693.47;;;-2.97;100.00
60433;BME280;46286;48.098;11.590;2023-04-06T00:58:53;95690.72;;;-2.95;100.00
60433;BME280;46286;48.098;11.590;2023-04-06T01:01:19;95687.44;;;-3.04;100.00
60433;BME280;46286;48.098;11.590;2023-04-06T01:03:45;95687.34;;;-2.96;100.00
60433;BME280;46286;48.098;11.590;2023-04-06T01:06:14;95693.91;;;-3.08;100.00
60433;BME280;46286;48.098;11.590;2023-04-06T01:08:39;95685.75;;;-3.26;100.00
60433;BME280;46286;48.098;11.590;2023-04-06T01:11:05;95681.69;;;-3.06;100.00
60433;BME280;46286;48.098;11.590;2023-04-06T01:13:31;95682.13;;;-3.17;100.00
60433;BME280;46286;48.098;11.590;2023-04-06T01:15:57;95689.94;;;-2.96;100.00
60433;BME280;46286;48.098;11.590;2023-04-06T01:18:28;95697.00;;;-2.98;100.00
60433;BME280;46286;48.098;11.590;2023-04-06T01:20:55;95686.56;;;-3.11;100.00
60433;BME280;46286;48.098;11.590;2023-04-06T01:23:21;95692.44;;;-3.17;100.00
60433;BME280;46286;48.098;11.590;2023-04-06T01:25:46;95682.66;;;-3.07;100.00
60433;BME280;46286;48.098;11.590;2023-04-06T01:28:12;95680.88;;;-3.21;100.00
60433;BME280;46286;48.098;11.590;2023-04-06T01:30:38;95674.78;;;-3.20;100.00
60433;BME280;46286;48.098;11.590;2023-04-06T01:33:03;95682.50;;;-3.20;100.00
60433;BME280;46286;48.098;11.590;2023-04-06T01:35:29;95674.13;;;-3.07;100.00
60433;BME280;46286;48.098;11.590;2023-04-06T01:37:55;95678.56;;;-3.16;100.00
60433;BME280;46286;48.098;11.590;2023-04-06T01:40:21;95665.97;;;-3.11;100.00
60433;BME280;46286;48.098;11.590;2023-04-06T01:42:46;95675.28;;;-3.10;100.00
60433;BME280;46286;48.098;11.590;2023-04-06T01:45:12;95673.88;;;-3.27;100.00
60433;BME280;46286;48.098;11.590;2023-04-06T01:47:38;95666.06;;;-3.19;100.00
60433;BME280;46286;48.098;11.590;2023-04-06T01:50:04;95673.22;;;-3.00;100.00
60433;BME280;46286;48.098;11.590;2023-04-06T01:52:32;95670.97;;;-3.24;100.00
60433;BME280;46286;48.098;11.590;2023-04-06T01:54:58;95672.38;;;-3.37;100.00
60433;BME280;46286;48.098;11.590;2023-04-06T01:57:24;95664.28;;;-3.19;100.00
60433;BME280;46286;48.098;11.590;2023-04-06T01:59:51;95670.50;;;-3.28;100.00
60433;BME280;46286;48.098;11.590;2023-04-06T02:02:16;95664.47;;;-3.35;100.00
60433;BME280;46286;48.098;11.590;2023-04-06T02:04:43;95665.28;;;-3.35;100.00
60433;BME280;46286;48.098;11.590;2023-04-06T02:07:08;95664.81;;;-3.38;100.00
60433;BME280;46286;48.098;11.590;2023-04-06T02:09:34;95667.13;;;-3.28;100.00
60433;BME280;46286;48.098;11.590;2023-04-06T02:12:00;95661.03;;;-3.27;100.00
60433;BME280;46286;48.098;11.590;2023-04-06T02:14:27;95662.44;;;-3.40;100.00
60433;BME280;46286;48.098;11.590;2023-04-06T02:16:52;95659.78;;;-3.32;100.00
60433;BME280;46286;48.098;11.590;2023-04-06T02:19:18;95650.91;;;-3.44;100.00
60433;BME280;46286;48.098;11.590;2023-04-06T02:21:44;95656.94;;;-3.37;100.00
60433;BME280;46286;48.098;11.590;2023-04-06T02:24:09;95661.97;;;-3.43;100.00
60433;BME280;46286;48.098;11.590;2023-04-06T02:26:35;95657.66;;;-3.43;100.00
60433;BME280;46286;48.098;11.590;2023-04-06T02:29:01;95660.56;;;-3.61;100.00
60433;BME280;46286;48.098;11.590;2023-04-06T02:31:27;95658.09;;;-3.69;100.00
60433;BME280;46286;48.098;11.590;2023-04-06T02:33:53;95656.72;;;-3.80;100.00
60433;BME280;46286;48.098;11.590;2023-04-06T02:36:18;95653.44;;;-3.74;100.00
60433;BME280;46286;48.098;11.590;2023-04-06T02:38:44;95660.25;;;-3.81;100.00
60433;BME280;46286;48.098;11.590;2023-04-06T02:41:09;95659.38;;;-3.88;100.00
60433;BME280;46286;48.098;11.590;2023-04-06T02:43:35;95659.91;;;-3.78;100.00
60433;BME280;46286;48.098;11.590;2023-04-06T02:46:00;95662.47;;;-3.78;100.00
60433;BME280;46286;48.098;11.590;2023-04-06T02:48:26;95655.66;;;-3.71;100.00
60433;BME280;46286;48.098;11.590;2023-04-06T02:50:52;95647.84;;;-3.92;100.00
60433;BME280;46286;48.098;11.590;2023-04-06T02:53:17;95645.00;;;-3.97;100.00
60433;BME280;46286;48.098;11.590;2023-04-06T02:55:43;95651.53;;;-4.10;100.00
60433;BME280;46286;48.098;11.590;2023-04-06T02:58:08;95646.31;;;-4.16;100.00
60433;BME280;46286;48.098;11.590;2023-04-06T03:00:34;95649.66;;;-4.16;100.00
60433;BME280;46286;48.098;11.590;2023-04-06T03:03:00;95654.50;;;-4.21;100.00
60433;BME280;46286;48.098;11.590;2023-04-06T03:05:25;95653.19;;;-4.17;100.00
60433;BME280;46286;48.098;11.590;2023-04-06T03:07:51;95647.19;;;-4.32;100.00
60433;BME280;46286;48.098;11.590;2023-04-06T03:10:17;95654.66;;;-4.38;100.00
60433;BME280;46286;48.098;11.590;2023-04-06T03:12:42;95649.03;;;-4.41;100.00
60433;BME280;46286;48.098;11.590;2023-04-06T03:15:08;95660.78;;;-4.47;100.00
60433;BME280;46286;48.098;11.590;2023-04-06T03:17:34;95657.25;;;-4.46;100.00
60433;BME280;46286;48.098;11.590;2023-04-06T03:20:00;95654.09;;;-4.48;100.00
60433;BME280;46286;48.098;11.590;2023-04-06T03:22:25;95659.66;;;-4.67;100.00
60433;BME280;46286;48.098;11.590;2023-04-06T03:24:51;95650.59;;;-4.78;100.00
60433;BME280;46286;48.098;11.590;2023-04-06T03:27:16;95653.59;;;-4.75;100.00
60433;BME280;46286;48.098;11.590;2023-04-06T03:29:42;95660.69;;;-4.77;100.00
60433;BME280;46286;48.098;11.590;2023-04-06T03:32:08;95653.94;;;-4.78;100.00
60433;BME280;46286;48.098;11.590;2023-04-06T03:34:34;95652.69;;;-4.82;100.00
60433;BME280;46286;48.098;11.590;2023-04-06T03:37:00;95658.16;;;-4.85;100.00
60433;BME280;46286;48.098;11.590;2023-04-06T03:39:25;95656.84;;;-4.81;100.00
60433;BME280;46286;48.098;11.590;2023-04-06T03:41:51;95656.88;;;-4.89;100.00
60433;BME280;46286;48.098;11.590;2023-04-06T03:44:17;95663.97;;;-4.91;100.00
60433;BME280;46286;48.098;11.590;2023-04-06T03:46:43;95658.84;;;-4.91;100.00
60433;BME280;46286;48.098;11.590;2023-04-06T03:49:08;95658.38;;;-4.95;100.00
60433;BME280;46286;48.098;11.590;2023-04-06T03:51:34;95666.22;;;-4.96;100.00
60433;BME280;46286;48.098;11.590;2023-04-06T03:53:59;95668.50;;;-5.01;100.00
60433;BME280;46286;48.098;11.590;2023-04-06T03:56:25;95662.41;;;-5.00;100.00
60433;BME280;46286;48.098;11.590;2023-04-06T03:58:50;95674.91;;;-4.97;100.00
60433;BME280;46286;48.098;11.590;2023-04-06T04:01:17;95667.56;;;-5.09;100.00
60433;BME280;46286;48.098;11.590;2023-04-06T04:03:43;95673.03;;;-5.12;100.00
60433;BME280;46286;48.098;11.590;2023-04-06T04:06:09;95676.84;;;-4.99;100.00
60433;BME280;46286;48.098;11.590;2023-04-06T04:08:34;95669.75;;;-4.97;100.00
60433;BME280;46286;48.098;11.590;2023-04-06T04:11:01;95673.97;;;-5.05;100.00
60433;BME280;46286;48.098;11.590;2023-04-06T04:13:26;95677.81;;;-5.09;100.00
60433;BME280;46286;48.098;11.590;2023-04-06T04:15:52;95680.56;;;-5.10;100.00
60433;BME280;46286;48.098;11.590;2023-04-06T04:18:18;95689.69;;;-5.08;100.00
60433;BME280;46286;48.098;11.590;2023-04-06T04:20:44;95688.09;;;-5.09;100.00
60433;BME280;46286;48.098;11.590;2023-04-06T04:23:10;95685.25;;;-5.14;100.00
60433;BME280;46286;48.098;11.590;2023-04-06T04:25:35;95686.38;;;-5.16;100.00
60433;BME280;46286;48.098;11.590;2023-04-06T04:28:02;95691.66;;;-5.18;100.00
60433;BME280;46286;48.098;11.590;2023-04-06T04:30:27;95684.94;;;-5.19;100.00
60433;BME280;46286;48.098;11.590;2023-04-06T04:32:53;95688.78;;;-5.15;100.00
60433;BME280;46286;48.098;11.590;2023-04-06T04:35:18;95686.56;;;-5.26;100.00
60433;BME280;46286;48.098;11.590;2023-04-06T04:37:44;95691.84;;;-5.19;100.00
60433;BME280;46286;48.098;11.590;2023-04-06T04:40:10;95695.53;;;-5.22;100.00
60433;BME280;46286;48.098;11.590;2023-04-06T04:42:35;95690.41;;;-5.30;100.00
60433;BME280;46286;48.098;11.590;2023-04-06T04:45:01;95681.75;;;-5.29;100.00
60433;BME280;46286;48.098;11.590;2023-04-06T04:47:27;95684.66;;;-5.24;100.00
60433;BME280;46286;48.098;11.590;2023-04-06T04:49:52;95684.00;;;-5.26;100.00
60433;BME280;46286;48.098;11.590;2023-04-06T04:52:18;95688.97;;;-5.25;100.00
60433;BME280;46286;48.098;11.590;2023-04-06T04:54:43;95686.22;;;-5.23;100.00
60433;BME280;46286;48.098;11.590;2023-04-06T04:57:09;95695.53;;;-5.22;100.00
60433;BME280;46286;48.098;11.590;2023-04-06T04:59:34;95693.63;;;-5.28;100.00
60433;BME280;46286;48.098;11.590;2023-04-06T05:02:00;95693.63;;;-5.28;100.00
60433;BME280;46286;48.098;11.590;2023-04-06T05:04:26;95686.22;;;-5.23;100.00
60433;BME280;46286;48.098;11.590;2023-04-06T05:07:03;95693.28;;;-5.17;100.00
60433;BME280;46286;48.098;11.590;2023-04-06T05:09:32;95690.72;;;-5.17;100.00
60433;BME280;46286;48.098;11.590;2023-04-06T05:11:58;95696.13;;;-5.12;100.00
60433;BME280;46286;48.098;11.590;2023-04-06T05:14:24;95694.25;;;-5.18;100.00
60433;BME280;46286;48.098;11.590;2023-04-06T05:16:50;95688.31;;;-5.18;100.00
60433;BME280;46286;48.098;11.590;2023-04-06T05:19:16;95687.66;;;-5.12;100.00
60433;BME280;46286;48.098;11.590;2023-04-06T05:21:41;95690.78;;;-4.94;100.00
60433;BME280;46286;48.098;11.590;2023-04-06T05:24:07;95688.97;;;-4.85;100.00
60433;BME280;46286;48.098;11.590;2023-04-06T05:26:34;95694.00;;;-4.68;100.00
60433;BME280;46286;48.098;11.590;2023-04-06T05:28:59;95695.84;;;-4.54;100.00
60433;BME280;46286;48.098;11.590;2023-04-06T05:31:25;95696.88;;;-4.40;100.00
60433;BME280;46286;48.098;11.590;2023-04-06T05:33:51;95698.28;;;-4.29;100.00
60433;BME280;46286;48.098;11.590;2023-04-06T05:36:16;95687.66;;;-4.26;100.00
60433;BME280;46286;48.098;11.590;2023-04-06T05:38:42;95697.13;;;-4.04;100.00
60433;BME280;46286;48.098;11.590;2023-04-06T05:41:07;95700.50;;;-3.88;100.00
60433;BME280;46286;48.098;11.590;2023-04-06T05:43:33;95694.59;;;-3.74;100.00
60433;BME280;46286;48.098;11.590;2023-04-06T05:45:58;95699.31;;;-3.62;100.00
60433;BME280;46286;48.098;11.590;2023-04-06T05:48:24;95700.56;;;-3.58;100.00
60433;BME280;46286;48.098;11.590;2023-04-06T05:50:50;95703.44;;;-3.53;100.00
60433;BME280;46286;48.098;11.590;2023-04-06T05:53:16;95707.84;;;-3.47;100.00
60433;BME280;46286;48.098;11.590;2023-04-06T05:55:42;95704.22;;;-3.38;100.00
60433;BME280;46286;48.098;11.590;2023-04-06T05:58:09;95707.16;;;-3.41;100.00
60433;BME280;46286;48.098;11.590;2023-04-06T06:00:35;95700.06;;;-3.39;100.00
60433;BME280;46286;48.098;11.590;2023-04-06T06:03:01;95706.63;;;-3.21;100.00
60433;BME280;46286;48.098;11.590;2023-04-06T06:05:29;95708.81;;;-3.03;100.00
60433;BME280;46286;48.098;11.590;2023-04-06T06:07:55;95698.25;;;-2.93;100.00
60433;BME280;46286;48.098;11.590;2023-04-06T06:10:20;95708.56;;;-2.93;100.00
60433;BME280;46286;48.098;11.590;2023-04-06T06:12:46;95704.66;;;-2.89;100.00
60433;BME280;46286;48.098;11.590;2023-04-06T06:15:12;95703.91;;;-2.83;100.00
60433;BME280;46286;48.098;11.590;2023-04-06T06:17:37;95694.50;;;-2.76;100.00
60433;BME280;46286;48.098;11.590;2023-04-06T06:20:06;95702.13;;;-2.68;100.00
60433;BME280;46286;48.098;11.590;2023-04-06T06:22:31;95687.53;;;-2.61;100.00
60433;BME280;46286;48.098;11.590;2023-04-06T06:24:57;95689.72;;;-2.42;100.00
60433;BME280;46286;48.098;11.590;2023-04-06T06:27:23;95704.88;;;-2.33;100.00
60433;BME280;46286;48.098;11.590;2023-04-06T06:29:48;95693.69;;;-1.97;100.00
60433;BME280;46286;48.098;11.590;2023-04-06T06:32:14;95704.59;;;-1.73;100.00
60433;BME280;46286;48.098;11.590;2023-04-06T06:34:39;95707.41;;;-1.68;100.00
60433;BME280;46286;48.098;11.590;2023-04-06T06:37:05;95702.81;;;-1.44;100.00
60433;BME280;46286;48.098;11.590;2023-04-06T06:39:31;95704.69;;;-1.31;100.00
60433;BME280;46286;48.098;11.590;2023-04-06T06:41:57;95702.16;;;-1.25;100.00
60433;BME280;46286;48.098;11.590;2023-04-06T06:44:25;95704.25;;;-1.00;100.00
60433;BME280;46286;48.098;11.590;2023-04-06T06:46:51;95705.56;;;-0.69;100.00
60433;BME280;46286;48.098;11.590;2023-04-06T06:49:17;95704.16;;;-0.10;100.00
60433;BME280;46286;48.098;11.590;2023-04-06T06:51:44;95699.66;;;-0.49;100.00
60433;BME280;46286;48.098;11.590;2023-04-06T06:54:09;95702.16;;;-0.01;100.00
60433;BME280;46286;48.098;11.590;2023-04-06T06:56:35;95705.34;;;0.01;100.00
60433;BME280;46286;48.098;11.590;2023-04-06T06:59:05;95710.31;;;0.23;100.00
60433;BME280;46286;48.098;11.590;2023-04-06T07:01:34;95713.72;;;0.30;100.00
60433;BME280;46286;48.098;11.590;2023-04-06T07:04:00;95713.31;;;0.20;100.00
60433;BME280;46286;48.098;11.590;2023-04-06T07:06:26;95718.06;;;0.63;100.00
60433;BME280;46286;48.098;11.590;2023-04-06T07:08:51;95716.69;;;0.67;100.00
60433;BME280;46286;48.098;11.590;2023-04-06T07:11:17;95715.28;;;0.44;100.00
60433;BME280;46286;48.098;11.590;2023-04-06T07:13:42;95707.94;;;0.41;100.00
60433;BME280;46286;48.098;11.590;2023-04-06T07:16:08;95706.16;;;0.35;100.00
60433;BME280;46286;48.098;11.590;2023-04-06T07:18:34;95705.19;;;1.21;100.00
60433;BME280;46286;48.098;11.590;2023-04-06T07:20:59;95713.94;;;1.20;100.00
60433;BME280;46286;48.098;11.590;2023-04-06T07:23:25;95707.84;;;0.95;100.00
60433;BME280;46286;48.098;11.590;2023-04-06T07:25:51;95721.44;;;1.42;100.00
60433;BME280;46286;48.098;11.590;2023-04-06T07:28:18;95708.66;;;1.47;100.00
60433;BME280;46286;48.098;11.590;2023-04-06T07:30:44;95710.78;;;1.18;100.00
60433;BME280;46286;48.098;11.590;2023-04-06T07:33:10;95709.88;;;2.15;100.00
60433;BME280;46286;48.098;11.590;2023-04-06T07:35:36;95710.47;;;1.85;100.00
60433;BME280;46286;48.098;11.590;2023-04-06T07:38:02;95719.16;;;1.66;100.00
60433;BME280;46286;48.098;11.590;2023-04-06T07:40:28;95715.41;;;1.94;100.00
60433;BME280;46286;48.098;11.590;2023-04-06T07:42:53;95714.75;;;2.55;100.00
60433;BME280;46286;48.098;11.590;2023-04-06T07:45:19;95717.25;;;2.87;94.83
60433;BME280;46286;48.098;11.590;2023-04-06T07:47:45;95717.69;;;2.84;89.85
60433;BME280;46286;48.098;11.590;2023-04-06T07:50:11;95711.66;;;2.90;88.53
60433;BME280;46286;48.098;11.590;2023-04-06T07:52:36;95712.91;;;2.81;95.45
60433;BME280;46286;48.098;11.590;2023-04-06T07:55:02;95704.78;;;2.52;100.00
60433;BME280;46286;48.098;11.590;2023-04-06T07:57:28;95706.34;;;2.97;89.75
60433;BME280;46286;48.098;11.590;2023-04-06T07:59:53;95705.19;;;2.93;88.53
60433;BME280;46286;48.098;11.590;2023-04-06T08:02:19;95703.88;;;2.65;93.57
60433;BME280;46286;48.098;11.590;2023-04-06T08:04:45;95702.44;;;2.44;99.24
60433;BME280;46286;48.098;11.590;2023-04-06T08:07:10;95705.50;;;3.03;86.44
60433;BME280;46286;48.098;11.590;2023-04-06T08:09:36;95700.59;;;3.14;89.10
60433;BME280;46286;48.098;11.590;2023-04-06T08:12:02;95698.56;;;3.16;83.23
60433;BME280;46286;48.098;11.590;2023-04-06T08:14:27;95702.94;;;3.52;84.29
60433;BME280;46286;48.098;11.590;2023-04-06T08:16:53;95701.81;;;3.29;77.90
60433;BME280;46286;48.098;11.590;2023-04-06T08:19:19;95706.44;;;3.27;81.36
60433;BME280;46286;48.098;11.590;2023-04-06T08:21:45;95715.25;;;2.89;86.41
60433;BME280;46286;48.098;11.590;2023-04-06T08:24:12;95699.63;;;3.45;74.53
60433;BME280;46286;48.098;11.590;2023-04-06T08:26:37;95707.44;;;4.06;69.74
60433;BME280;46286;48.098;11.590;2023-04-06T08:29:03;95709.59;;;4.21;59.74
60433;BME280;46286;48.098;11.590;2023-04-06T08:31:29;95703.22;;;4.47;56.67
60433;BME280;46286;48.098;11.590;2023-04-06T08:33:56;95705.47;;;4.79;54.35
60433;BME280;46286;48.098;11.590;2023-04-06T08:36:21;95699.56;;;4.95;55.53
60433;BME280;46286;48.098;11.590;2023-04-06T08:38:49;95705.00;;;4.58;61.39
60433;BME280;46286;48.098;11.590;2023-04-06T08:41:15;95705.91;;;4.99;61.18
60433;BME280;46286;48.098;11.590;2023-04-06T08:43:58;95700.13;;;4.74;62.66
60433;BME280;46286;48.098;11.590;2023-04-06T08:46:25;95702.75;;;4.74;65.08
60433;BME280;46286;48.098;11.590;2023-04-06T08:48:56;95695.50;;;4.52;64.14
60433;BME280;46286;48.098;11.590;2023-04-06T08:51:23;95693.00;;;4.81;64.54
60433;BME280;46286;48.098;11.590;2023-04-06T08:53:53;95688.00;;;4.91;61.99
60433;BME280;46286;48.098;11.590;2023-04-06T08:56:21;95694.31;;;5.19;62.47
60433;BME280;46286;48.098;11.590;2023-04-06T08:58:47;95696.78;;;5.37;58.23
60433;BME280;46286;48.098;11.590;2023-04-06T09:01:16;95690.22;;;5.23;58.79
60433;BME280;46286;48.098;11.590;2023-04-06T09:03:43;95687.31;;;4.84;60.28
60433;BME280;46286;48.098;11.590;2023-04-06T09:06:10;95694.69;;;4.99;60.88
60433;BME280;46286;48.098;11.590;2023-04-06T09:08:39;95683.00;;;5.01;60.80
60433;BME280;46286;48.098;11.590;2023-04-06T09:11:05;95682.03;;;5.31;58.54
60433;BME280;46286;48.098;11.590;2023-04-06T09:13:31;95683.16;;;5.64;56.41
60433;BME280;46286;48.098;11.590;2023-04-06T09:16:04;95693.88;;;5.80;54.96
60433;BME280;46286;48.098;11.590;2023-04-06T09:18:31;95688.19;;;5.83;56.81
60433;BME280;46286;48.098;11.590;2023-04-06T09:21:02;95676.34;;;5.92;57.03
60433;BME280;46286;48.098;11.590;2023-04-06T09:23:28;95684.50;;;5.96;55.18
60433;BME280;46286;48.098;11.590;2023-04-06T09:26:10;95689.88;;;5.60;57.67
60433;BME280;46286;48.098;11.590;2023-04-06T09:28:53;95677.38;;;5.91;55.25
60433;BME280;46286;48.098;11.590;2023-04-06T09:31:24;95691.75;;;6.05;54.87
60433;BME280;46286;48.098;11.590;2023-04-06T09:33:50;95683.03;;;6.00;53.96
60433;BME280;46286;48.098;11.590;2023-04-06T09:36:17;95685.09;;;6.15;52.50
60433;BME280;46286;48.098;11.590;2023-04-06T09:38:58;95692.47;;;6.35;53.69
60433;BME280;46286;48.098;11.590;2023-04-06T09:41:25;95682.41;;;6.44;52.37
60433;BME280;46286;48.098;11.590;2023-04-06T09:44:01;95682.25;;;6.67;51.96
60433;BME280;46286;48.098;11.590;2023-04-06T09:46:27;95684.94;;;6.72;47.96
60433;BME280;46286;48.098;11.590;2023-04-06T09:48:56;95685.09;;;6.83;48.70
60433;BME280;46286;48.098;11.590;2023-04-06T09:51:23;95673.91;;;6.70;47.18
60433;BME280;46286;48.098;11.590;2023-04-06T09:53:52;95669.44;;;6.49;47.77
60433;BME280;46286;48.098;11.590;2023-04-06T09:56:23;95669.88;;;6.80;48.70
60433;BME280;46286;48.098;11.590;2023-04-06T09:58:54;95673.50;;;7.18;46.69
60433;BME280;46286;48.098;11.590;2023-04-06T10:01:22;95662.94;;;7.57;44.07
60433;BME280;46286;48.098;11.590;2023-04-06T10:06:28;95655.88;;;7.35;45.29
60433;BME280;46286;48.098;11.590;2023-04-06T10:08:59;95662.50;;;7.65;42.66
60433;BME280;46286;48.098;11.590;2023-04-06T10:11:26;95662.09;;;8.38;44.46
60433;BME280;46286;48.098;11.590;2023-04-06T10:13:52;95653.72;;;8.41;42.19
60433;BME280;46286;48.098;11.590;2023-04-06T10:16:17;95650.03;;;9.33;41.91
60433;BME280;46286;48.098;11.590;2023-04-06T10:18:47;95652.00;;;9.00;40.58
60433;BME280;46286;48.098;11.590;2023-04-06T10:21:19;95655.59;;;8.46;42.42
60433;BME280;46286;48.098;11.590;2023-04-06T10:23:52;95654.75;;;8.40;41.21
60433;BME280;46286;48.098;11.590;2023-04-06T10:26:21;95647.38;;;8.32;42.03
60433;BME280;46286;48.098;11.590;2023-04-06T10:28:48;95648.13;;;8.00;42.97
60433;BME280;46286;48.098;11.590;2023-04-06T10:31:14;95641.28;;;7.94;43.12
60433;BME280;46286;48.098;11.590;2023-04-06T10:33:40;95654.72;;;8.35;44.07
60433;BME280;46286;48.098;11.590;2023-04-06T10:36:26;95644.84;;;8.47;42.32
60433;BME280;46286;48.098;11.590;2023-04-06T10:38:57;95646.69;;;8.14;40.45
60433;BME280;46286;48.098;11.590;2023-04-06T10:41:23;95644.25;;;8.40;41.82
60433;BME280;46286;48.098;11.590;2023-04-06T10:43:56;95639.59;;;8.85;40.31
60433;BME280;46286;48.098;11.590;2023-04-06T10:46:30;95639.03;;;9.46;39.63
60433;BME280;46286;48.098;11.590;2023-04-06T10:48:57;95634.41;;;10.00;37.27
60433;BME280;46286;48.098;11.590;2023-04-06T10:51:27;95641.25;;;10.37;37.62
60433;BME280;46286;48.098;11.590;2023-04-06T10:53:54;95634.94;;;10.17;37.26
60433;BME280;46286;48.098;11.590;2023-04-06T10:56:24;95636.50;;;10.65;37.06
60433;BME280;46286;48.098;11.590;2023-04-06T10:58:54;95619.66;;;11.41;36.34
60433;BME280;46286;48.098;11.590;2023-04-06T11:01:24;95621.78;;;10.02;36.54
60433;BME280;46286;48.098;11.590;2023-04-06T11:03:53;95620.22;;;10.06;37.91
60433;BME280;46286;48.098;11.590;2023-04-06T11:06:20;95625.41;;;10.78;37.19
60433;BME280;46286;48.098;11.590;2023-04-06T11:08:47;95626.00;;;10.03;37.09
60433;BME280;46286;48.098;11.590;2023-04-06T11:11:14;95621.75;;;9.56;37.89
60433;BME280;46286;48.098;11.590;2023-04-06T11:13:58;95628.38;;;10.51;36.75
60433;BME280;46286;48.098;11.590;2023-04-06T11:16:26;95615.09;;;12.61;34.18
60433;BME280;46286;48.098;11.590;2023-04-06T11:19:04;95616.22;;;11.41;33.60
60433;BME280;46286;48.098;11.590;2023-04-06T11:21:51;95603.63;;;11.33;35.47
60433;BME280;46286;48.098;11.590;2023-04-06T11:24:18;95611.03;;;10.34;36.00
60433;BME280;46286;48.098;11.590;2023-04-06T11:26:55;95605.47;;;9.84;37.72
60433;BME280;46286;48.098;11.590;2023-04-06T11:31:49;95591.75;;;9.46;37.11
60433;BME280;46286;48.098;11.590;2023-04-06T11:34:17;95588.06;;;11.81;36.70
60433;BME280;46286;48.098;11.590;2023-04-06T11:36:44;95594.34;;;12.54;33.97
60433;BME280;46286;48.098;11.590;2023-04-06T11:39:12;95593.03;;;11.43;32.92
60433;BME280;46286;48.098;11.590;2023-04-06T11:41:38;95592.63;;;10.09;36.15
60433;BME280;46286;48.098;11.590;2023-04-06T11:44:05;95593.38;;;10.30;37.42
60433;BME280;46286;48.098;11.590;2023-04-06T11:46:30;95587.94;;;11.02;36.94
60433;BME280;46286;48.098;11.590;2023-04-06T11:49:00;95590.19;;;10.58;37.39
60433;BME280;46286;48.098;11.590;2023-04-06T11:51:26;95590.69;;;10.66;36.74
60433;BME280;46286;48.098;11.590;2023-04-06T11:53:53;95582.84;;;9.58;37.38
60433;BME280;46286;48.098;11.590;2023-04-06T11:56:26;95584.19;;;10.48;36.84
60433;BME280;46286;48.098;11.590;2023-04-06T11:58:55;95576.78;;;11.25;35.40
60433;BME280;46286;48.098;11.590;2023-04-06T12:01:21;95570.78;;;10.08;36.15
60433;BME280;46286;48.098;11.590;2023-04-06T12:03:46;95582.84;;;9.78;36.67
60433;BME280;46286;48.098;11.590;2023-04-06T12:06:12;95582.81;;;9.37;38.94
60433;BME280;46286;48.098;11.590;2023-04-06T12:08:38;95578.66;;;9.82;37.74
60433;BME280;46286;48.098;11.590;2023-04-06T12:11:03;95567.69;;;11.47;34.04
60433;BME280;46286;48.098;11.590;2023-04-06T12:13:29;95576.06;;;14.01;33.50
60433;BME280;46286;48.098;11.590;2023-04-06T12:15:54;95573.25;;;15.28;29.81
60433;BME280;46286;48.098;11.590;2023-04-06T12:18:23;95562.72;;;15.73;28.85
60433;BME280;46286;48.098;11.590;2023-04-06T12:20:49;95564.41;;;14.35;30.16
60433;BME280;46286;48.098;11.590;2023-04-06T12:23:14;95558.00;;;16.70;30.32
60433;BME280;46286;48.098;11.590;2023-04-06T12:25:42;95560.00;;;17.04;27.53
60433;BME280;46286;48.098;11.590;2023-04-06T12:28:10;95553.25;;;13.73;31.21
60433;BME280;46286;48.098;11.590;2023-04-06T12:30:38;95556.38;;;15.24;29.86
60433;BME280;46286;48.098;11.590;2023-04-06T12:33:06;95552.34;;;15.63;30.08
60433;BME280;46286;48.098;11.590;2023-04-06T12:35:35;95554.44;;;17.49;28.40
60433;BME280;46286;48.098;11.590;2023-04-06T12:38:02;95553.22;;;15.36;27.90
60433;BME280;46286;48.098;11.590;2023-04-06T12:40:27;95540.03;;;17.51;27.12
60433;BME280;46286;48.098;11.590;2023-04-06T12:42:53;95546.97;;;15.18;26.91
60433;BME280;46286;48.098;11.590;2023-04-06T12:45:18;95531.22;;;13.20;30.95
60433;BME280;46286;48.098;11.590;2023-04-06T12:47:44;95536.72;;;13.62;30.69
60433;BME280;46286;48.098;11.590;2023-04-06T12:50:10;95548.19;;;14.23;29.63